Time;durP1;ratioP1;P1;durP2;ratioP2;P2;SDS_P1;SDS_P2;PMS_P1;PMS_P2;Temp;Humidity;BMP_temperature;BMP_pressure;BME280_temperature;BME280_humidity;BME280_pressure;Samples;Min_cycle;Max_cycle;Signal;HPM_P1;HPM_P2
2023/04/22 00:01:02;;;;;;;8.38;5.88;;;11.90;83.10;;;11.13;66.63;99838.19;4946075;28;20047;-79
2023/04/22 00:03:29;;;;;;;7.95;5.82;;;11.90;83.30;;;11.12;66.54;99838.41;4946078;28;20066;-79
2023/04/22 00:05:57;;;;;;;9.88;6.05;;;11.90;83.10;;;11.09;66.60;99842.38;4949146;28;20392;-78
2023/04/22 00:08:24;;;;;;;9.38;6.22;;;11.90;83.30;;;11.06;66.64;99843.63;4949310;28;20842;-79
2023/04/22 00:10:51;;;;;;;9.85;6.65;;;11.90;83.20;;;11.05;66.46;99841.19;4949828;28;20110;-78
2023/04/22 00:13:20;;;;;;;10.18;6.75;;;11.80;83.00;;;11.02;66.49;99836.31;4943495;28;20071;-78
2023/04/22 00:15:47;;;;;;;10.95;6.15;;;11.80;83.10;;;10.97;66.53;99837.00;4949110;28;20142;-79
2023/04/22 00:18:15;;;;;;;9.35;6.13;;;11.80;83.00;;;10.97;66.47;99833.50;4955812;28;20127;-78
2023/04/22 00:20:43;;;;;;;9.02;6.68;;;11.80;83.00;;;10.97;66.56;99828.97;4949426;28;20058;-79
2023/04/22 00:23:12;;;;;;;8.43;6.03;;;11.70;83.20;;;10.98;66.71;99827.13;4949018;28;20102;-78
2023/04/22 00:25:40;;;;;;;11.45;6.68;;;11.70;83.50;;;10.98;66.75;99824.47;4950378;28;20125;-80
2023/04/22 00:28:08;;;;;;;9.32;6.55;;;11.70;83.60;;;10.97;66.87;99828.97;4948675;28;20047;-79
2023/04/22 00:30:36;;;;;;;12.65;7.85;;;11.70;83.60;;;10.97;67.20;99825.50;4949702;28;20118;-79
2023/04/22 00:33:07;;;;;;;11.82;7.75;;;11.70;83.80;;;10.94;67.19;99817.97;4944472;28;20083;-80
2023/04/22 00:35:34;;;;;;;14.43;8.25;;;11.70;83.80;;;10.94;67.21;99824.13;4945946;28;20133;-80
2023/04/22 00:38:01;;;;;;;14.02;8.32;;;11.70;84.00;;;10.93;67.37;99824.34;4954300;28;20054;-79
2023/04/22 00:40:28;;;;;;;11.45;7.80;;;11.70;84.10;;;10.88;67.41;99817.00;4970186;28;20133;-79
2023/04/22 00:42:56;;;;;;;12.95;8.35;;;11.60;83.80;;;10.89;67.37;99818.66;4972762;28;20050;-80
2023/04/22 00:45:26;;;;;;;12.25;8.48;;;11.60;83.90;;;10.87;67.43;99814.59;4973271;28;20497;-79
2023/04/22 00:47:56;;;;;;;14.15;8.82;;;11.60;83.90;;;10.87;67.57;99812.72;4984035;28;20402;-79
2023/04/22 00:50:24;;;;;;;13.20;8.50;;;11.60;84.10;;;10.89;67.65;99807.19;4960270;28;20045;-81
2023/04/22 00:52:51;;;;;;;13.52;8.30;;;11.60;84.30;;;10.87;67.72;99810.06;4976951;28;20050;-79
2023/04/22 00:55:18;;;;;;;11.50;7.53;;;11.60;84.30;;;10.85;67.64;99804.16;4972893;28;20125;-78
2023/04/22 00:57:46;;;;;;;13.05;8.95;;;11.60;84.20;;;10.85;67.84;99809.50;4975871;28;20050;-80
2023/04/22 01:00:14;;;;;;;11.48;7.63;;;11.60;84.50;;;10.86;67.84;99808.44;4969391;28;20075;-80
2023/04/22 01:02:41;;;;;;;11.35;7.75;;;11.60;84.40;;;10.85;67.78;99822.81;4973357;28;20071;-81
2023/04/22 01:05:11;;;;;;;12.02;7.07;;;11.60;84.40;;;10.83;67.93;99809.72;4970089;28;20055;-79
2023/04/22 01:07:38;;;;;;;11.60;7.20;;;11.80;84.60;;;10.83;67.84;99815.06;4986203;28;20046;-80
2023/04/22 01:10:07;;;;;;;11.20;6.80;;;11.60;84.50;;;10.85;67.88;99814.00;4972564;28;20149;-79
2023/04/22 01:12:34;;;;;;;13.25;6.93;;;11.60;84.70;;;10.85;68.02;99814.81;4970318;28;20442;-78
2023/04/22 01:15:02;;;;;;;13.32;6.85;;;11.60;84.60;;;10.82;68.04;99813.41;4974011;28;20411;-79
2023/04/22 01:17:30;;;;;;;10.43;6.80;;;11.60;84.70;;;10.84;68.26;99810.53;4985806;28;20121;-79
2023/04/22 01:19:59;;;;;;;10.13;7.20;;;11.60;84.70;;;10.87;68.43;99811.91;4971217;28;20042;-78
2023/04/22 01:22:33;;;;;;;10.05;7.03;;;11.60;85.10;;;10.90;68.43;99811.47;4970654;28;20050;-79
2023/04/22 01:25:03;;;;;;;12.13;7.63;;;11.60;85.10;;;10.90;68.51;99825.63;4976229;28;20117;-78
2023/04/22 01:27:30;;;;;;;9.50;7.00;;;11.60;85.10;;;10.87;68.55;99812.72;4984143;28;20503;-80
2023/04/22 01:29:58;;;;;;;11.30;7.53;;;11.60;85.10;;;10.87;68.52;99811.91;4971680;28;20578;-80
2023/04/22 01:32:25;;;;;;;10.68;7.03;;;11.60;85.10;;;10.86;68.56;99811.09;4970317;28;20154;-79
2023/04/22 01:34:52;;;;;;;10.40;7.32;;;11.60;85.20;;;10.86;68.59;99811.09;4970100;28;20117;-77
2023/04/22 01:37:20;;;;;;;11.02;7.03;;;11.60;85.30;;;10.86;68.65;99812.97;4972071;28;20499;-78
2023/04/22 01:39:48;;;;;;;12.75;6.88;;;11.60;85.20;;;10.83;68.52;99809.72;4966436;28;20499;-78
2023/04/22 01:42:17;;;;;;;11.02;6.68;;;11.60;85.20;;;10.80;68.71;99815.50;4971833;28;20065;-81
2023/04/22 01:44:45;;;;;;;12.80;7.18;;;11.60;85.10;;;10.77;68.55;99805.28;4967205;28;20578;-81
2023/04/22 01:47:14;;;;;;;11.73;8.02;;;11.50;85.00;;;10.76;68.68;99813.53;4984983;28;20046;-78
2023/04/22 01:49:42;;;;;;;10.63;7.60;;;11.50;85.10;;;10.78;68.73;99811.44;4963996;28;20515;-78
2023/04/22 01:52:09;;;;;;;9.00;6.20;;;11.50;85.10;;;10.79;68.71;99816.56;4968619;28;20126;-79
2023/04/22 01:54:36;;;;;;;11.23;7.57;;;11.50;85.20;;;10.76;68.87;99811.66;4968842;28;20050;-78
2023/04/22 01:57:13;;;;;;;12.32;7.35;;;11.50;85.30;;;10.74;69.10;99812.94;4985592;28;20407;-80
2023/04/22 01:59:42;;;;;;;12.57;7.00;;;11.50;85.30;;;10.75;68.92;99804.72;4970123;28;20055;-79
2023/04/22 02:02:09;;;;;;;10.30;7.32;;;11.50;85.30;;;10.77;68.92;99809.81;4965933;28;20114;-78
2023/04/22 02:04:36;;;;;;;10.98;7.63;;;11.50;85.50;;;10.77;69.08;99807.94;4973588;28;20042;-80
2023/04/22 02:07:03;;;;;;;10.82;6.45;;;11.50;85.50;;;10.76;69.04;99806.34;4976436;28;20078;-79
2023/04/22 02:09:33;;;;;;;9.95;7.43;;;11.50;85.50;;;10.76;69.18;99805.53;4977217;28;20035;-81
2023/04/22 02:12:01;;;;;;;10.30;6.90;;;11.50;85.50;;;10.76;69.18;99809.00;4967506;28;20154;-78
2023/04/22 02:14:28;;;;;;;12.57;7.40;;;11.50;85.70;;;10.77;69.46;99812.47;4967211;28;20057;-78
2023/04/22 02:16:57;;;;;;;10.10;6.93;;;11.50;85.70;;;10.75;69.48;99811.91;4974500;28;20078;-81
2023/04/22 02:19:24;;;;;;;11.15;6.85;;;11.50;85.70;;;10.75;69.35;99806.56;4979246;28;20039;-80
2023/04/22 02:21:51;;;;;;;12.05;7.13;;;11.50;85.70;;;10.75;69.32;99811.91;4969169;28;20050;-79
2023/04/22 02:24:18;;;;;;;11.10;7.47;;;11.50;86.10;;;10.75;69.42;99817.25;4951378;28;20159;-78
2023/04/22 02:26:49;;;;;;;10.95;6.95;;;11.50;86.00;;;10.75;69.30;99803.91;4969592;28;20443;-78
2023/04/22 02:29:16;;;;;;;9.97;7.07;;;11.50;86.10;;;10.75;69.49;99806.56;4970129;28;20043;-80
2023/04/22 02:31:43;;;;;;;10.90;7.07;;;11.50;86.00;;;10.72;69.49;99799.81;4954525;28;20062;-79
2023/04/22 02:34:12;;;;;;;9.57;7.20;;;11.50;85.90;;;10.70;69.47;99793.91;4970479;28;20055;-79
2023/04/22 02:36:39;;;;;;;10.00;7.10;;;11.50;86.00;;;10.72;69.60;99793.69;4968053;28;20069;-80
2023/04/22 02:39:07;;;;;;;10.27;7.20;;;11.50;86.00;;;10.70;69.57;99788.59;4969279;28;20042;-79
2023/04/22 02:41:35;;;;;;;9.73;7.22;;;11.50;86.00;;;10.69;69.53;99792.31;4965849;28;20528;-78
2023/04/22 02:44:03;;;;;;;10.75;6.97;;;11.50;86.10;;;10.70;69.59;99795.78;4966756;28;20134;-81
2023/04/22 02:46:31;;;;;;;10.60;6.88;;;11.50;85.90;;;10.70;69.70;99793.91;4975533;28;20069;-78
2023/04/22 02:48:58;;;;;;;9.55;6.78;;;11.50;86.10;;;10.71;69.63;99790.22;4979913;28;20422;-80
2023/04/22 02:51:26;;;;;;;10.50;7.18;;;11.50;86.20;;;10.72;69.77;99791.00;4967389;28;20154;-80
2023/04/22 02:53:54;;;;;;;10.20;7.15;;;11.50;86.20;;;10.70;69.82;99782.44;4972389;28;20054;-77
2023/04/22 02:56:21;;;;;;;10.07;7.20;;;11.50;86.30;;;10.71;69.78;99781.41;4978989;28;20047;-78
2023/04/22 02:58:48;;;;;;;10.35;7.03;;;11.50;86.30;;;10.71;69.73;99787.53;4978099;28;20195;-81
2023/04/22 03:01:15;;;;;;;9.75;7.07;;;11.50;86.20;;;10.71;69.72;99779.53;4965386;28;20133;-78
2023/04/22 03:03:43;;;;;;;10.73;7.55;;;11.50;86.20;;;10.72;69.71;99770.50;4971746;28;20049;-81
2023/04/22 03:06:13;;;;;;;9.30;7.10;;;11.50;86.30;;;10.73;69.77;99782.78;4975458;28;20078;-78
2023/04/22 03:08:42;;;;;;;10.18;7.20;;;11.50;86.40;;;10.72;69.70;99770.50;4973701;28;20692;-78
2023/04/22 03:11:09;;;;;;;13.63;7.47;;;11.50;86.40;;;10.73;69.81;99766.78;4966848;28;20054;-82
2023/04/22 03:13:36;;;;;;;9.80;6.72;;;11.40;86.30;;;10.73;69.79;99758.78;4966358;28;20653;-78
2023/04/22 03:16:03;;;;;;;10.10;7.25;;;11.50;86.50;;;10.73;69.75;99760.63;4977722;28;20046;-79
2023/04/22 03:18:31;;;;;;;10.48;7.13;;;11.50;86.50;;;10.72;70.04;99764.34;4979267;28;20522;-79
2023/04/22 03:20:59;;;;;;;9.32;7.00;;;11.50;86.70;;;10.72;70.25;99762.50;4968044;28;20054;-81
2023/04/22 03:23:26;;;;;;;10.73;7.57;;;11.50;86.70;;;10.73;70.12;99760.63;4963360;28;20086;-78
2023/04/22 03:25:55;;;;;;;9.45;6.40;;;11.50;86.70;;;10.73;70.22;99755.28;4975971;28;20196;-78
2023/04/22 03:28:23;;;;;;;9.95;7.00;;;11.50;86.70;;;10.74;70.06;99751.59;4977861;28;20050;-80
2023/04/22 03:30:50;;;;;;;9.15;6.93;;;11.50;86.70;;;10.75;70.32;99751.38;4968143;28;20678;-79
2023/04/22 03:33:18;;;;;;;8.07;5.82;;;11.50;86.70;;;10.74;70.34;99755.09;4961163;28;20125;-80
2023/04/22 03:35:55;;;;;;;11.40;6.72;;;11.50;86.70;;;10.75;70.16;99758.56;4966836;28;20054;-79
2023/04/22 03:38:22;;;;;;;10.13;6.68;;;11.50;86.80;;;10.76;70.34;99753.00;4968332;28;20074;-80
2023/04/22 03:40:51;;;;;;;8.45;5.95;;;11.50;86.90;;;10.78;70.42;99753.59;4964784;28;20042;-79
2023/04/22 03:43:32;;;;;;;10.15;6.85;;;11.50;87.10;;;10.79;70.46;99755.22;4971271;28;20053;-81
2023/04/22 03:46:05;;;;;;;9.55;6.28;;;11.50;86.90;;;10.79;70.71;99749.88;4960130;28;20128;-78
2023/04/22 03:48:34;;;;;;;11.65;7.07;;;11.50;87.20;;;10.79;70.70;99749.88;4963402;28;20470;-79
2023/04/22 03:51:03;;;;;;;10.70;7.13;;;11.50;89.70;;;10.80;70.61;99740.81;4967409;28;20050;-81
2023/04/22 03:53:35;;;;;;;13.10;7.90;;;11.50;87.10;;;10.83;70.63;99748.38;4960394;28;20408;-79
2023/04/22 03:56:02;;;;;;;11.85;7.65;;;11.60;87.20;;;10.85;70.56;99737.47;4976339;28;20060;-81
2023/04/22 03:58:33;;;;;;;10.57;7.72;;;11.60;87.10;;;10.83;70.73;99745.72;4982467;28;20046;-77
2023/04/22 04:01:05;;;;;;;11.68;7.80;;;11.60;87.10;;;10.85;70.82;99739.31;4965431;28;20553;-78
2023/04/22 04:03:32;;;;;;;11.07;7.40;;;11.60;87.10;;;10.83;70.70;99734.19;4967207;28;20055;-79
2023/04/22 04:06:00;;;;;;;9.80;7.32;;;11.60;87.00;;;10.82;70.81;99729.91;4975692;28;20046;-80
2023/04/22 04:08:27;;;;;;;10.95;6.97;;;11.60;87.70;;;10.79;70.72;99728.53;4960235;28;20581;-78
2023/04/22 04:10:54;;;;;;;10.82;7.30;;;11.60;87.30;;;10.78;70.77;99726.91;4967574;28;20053;-79
2023/04/22 04:13:23;;;;;;;10.35;7.32;;;11.60;87.10;;;10.78;70.65;99731.41;4967116;28;20522;-81
2023/04/22 04:16:13;;;;;;;10.40;6.85;;;11.60;87.20;;;10.77;70.82;99725.28;4975158;28;20053;-81
2023/04/22 04:18:43;;;;;;;;;;;11.60;87.10;;;10.75;70.66;99727.38;4977027;28;20533;-82
2023/04/22 04:21:10;;;;;;;9.35;6.28;;;11.50;87.10;;;10.74;70.80;99724.94;4969875;28;19930;-82
2023/04/22 04:23:44;;;;;;;10.38;5.93;;;11.50;87.00;;;10.76;70.77;99728.19;4957344;28;20126;-78
2023/04/22 04:26:11;;;;;;;10.18;6.60;;;11.50;87.20;;;10.76;70.84;99718.31;4980133;28;20105;-79
2023/04/22 04:28:42;;;;;;;9.95;6.95;;;11.50;87.40;;;10.78;70.94;99721.59;4969684;28;20489;-79
2023/04/22 04:31:09;;;;;;;8.13;5.95;;;11.50;87.70;;;10.79;70.93;99709.88;4969502;28;20086;-79
2023/04/22 04:33:39;;;;;;;10.65;6.57;;;11.50;87.50;;;10.78;71.19;99705.59;4965523;28;20039;-81
2023/04/22 04:36:09;;;;;;;9.05;6.57;;;11.50;87.70;;;10.80;71.22;99705.34;4949907;28;20455;-78
2023/04/22 04:38:37;;;;;;;9.18;6.75;;;11.50;87.70;;;10.79;71.47;99709.88;4997387;23;20046;-81
2023/04/22 04:41:07;;;;;;;9.73;6.65;;;11.50;87.70;;;10.80;71.24;99713.34;5004547;28;20041;-81
2023/04/22 04:43:35;;;;;;;9.48;6.55;;;11.60;87.80;;;10.80;71.44;99708.81;5001047;28;20050;-81
2023/04/22 04:46:23;;;;;;;10.10;6.90;;;11.50;87.70;;;10.79;71.58;99709.88;4991905;28;20063;-81
2023/04/22 04:48:53;;;;;;;8.75;6.65;;;11.60;87.80;;;10.78;71.53;99710.91;5001568;28;20105;-82
2023/04/22 04:51:21;;;;;;;11.85;6.68;;;11.60;87.80;;;10.79;71.47;99712.53;5001188;28;20076;-80
2023/04/22 04:53:52;;;;;;;8.93;6.20;;;11.50;87.80;;;10.81;71.56;99712.28;5002366;28;20048;-81
2023/04/22 04:56:20;;;;;;;10.23;6.00;;;11.60;87.80;;;10.82;71.48;99712.06;5020761;28;20136;-83
2023/04/22 04:58:47;;;;;;;10.57;6.78;;;11.60;87.90;;;10.80;71.48;99708.81;5006223;28;20054;-81
2023/04/22 05:01:21;;;;;;;9.88;6.60;;;11.70;88.00;;;10.79;71.69;99715.19;5000857;28;20035;-82
2023/04/22 05:03:49;;;;;;;9.82;6.38;;;11.60;87.90;;;10.82;71.93;99708.56;5004586;28;20056;-82
2023/04/22 05:06:19;;;;;;;10.95;7.60;;;11.60;87.90;;;10.85;72.05;99708.13;5006009;28;20046;-81
2023/04/22 05:08:55;;;;;;;9.63;6.70;;;11.60;88.10;;;10.85;71.83;99701.97;5006575;28;20100;-80
2023/04/22 05:11:22;;;;;;;8.82;6.32;;;11.60;88.00;;;10.85;72.25;99696.66;5005397;28;20517;-79
2023/04/22 05:13:51;;;;;;;9.60;6.65;;;11.60;88.10;;;10.87;72.06;99699.88;5000869;28;20050;-81
2023/04/22 05:16:25;;;;;;;9.02;6.25;;;11.60;88.30;;;10.90;72.10;99702.91;5006171;28;20049;-81
2023/04/22 05:18:52;;;;;;;8.57;6.20;;;11.60;88.30;;;10.92;72.19;99692.00;5006262;28;20100;-81
2023/04/22 05:21:21;;;;;;;10.18;6.50;;;11.60;88.30;;;10.94;72.15;99697.91;5006290;28;20038;-82
2023/04/22 05:23:49;;;;;;;10.82;7.03;;;11.60;88.30;;;10.96;72.10;99698.50;5004825;28;20041;-82
2023/04/22 05:26:17;;;;;;;8.52;6.03;;;11.70;88.50;;;10.97;72.50;99697.44;5007501;28;20091;-80
2023/04/22 05:28:47;;;;;;;9.73;6.47;;;11.70;88.50;;;11.00;72.38;99697.78;5006625;28;20054;-82
2023/04/22 05:31:17;;;;;;;9.52;6.72;;;11.70;88.50;;;11.02;72.65;99692.22;5009765;28;20049;-81
2023/04/22 05:33:44;;;;;;;9.38;6.60;;;11.70;88.70;;;11.04;72.83;99695.47;5004500;28;21508;-79
2023/04/22 05:36:11;;;;;;;9.45;6.10;;;11.80;88.70;;;11.05;73.09;99697.09;5024953;28;20042;-79
2023/04/22 05:38:40;;;;;;;11.15;6.80;;;11.70;88.90;;;11.07;73.04;99695.81;5014799;28;20088;-80
2023/04/22 05:41:07;;;;;;;8.82;6.40;;;11.80;88.90;;;11.09;73.01;99696.41;5029190;28;20037;-78
2023/04/22 05:43:35;;;;;;;8.85;6.20;;;11.80;88.90;;;11.13;73.12;99701.28;5009997;28;20049;-80
2023/04/22 05:46:14;;;;;;;9.50;6.68;;;11.80;88.90;;;11.14;73.31;99693.03;5003717;28;20456;-80
2023/04/22 05:48:42;;;;;;;9.30;6.65;;;11.80;89.10;;;11.17;73.49;99697.88;5012536;28;20061;-79
2023/04/22 05:51:21;;;;;;;8.60;6.18;;;12.00;89.40;;;11.19;73.45;99703.81;5029334;28;20052;-78
2023/04/22 05:53:49;;;;;;;7.78;6.28;;;11.90;89.40;;;11.23;73.48;99696.16;5012494;28;20057;-78
2023/04/22 05:56:17;;;;;;;8.00;5.90;;;11.90;89.30;;;11.26;73.68;99701.00;5013135;28;20041;-80
2023/04/22 05:58:44;;;;;;;12.32;6.95;;;11.90;89.50;;;11.29;73.89;99705.91;5025267;28;20496;-80
2023/04/22 06:01:16;;;;;;;9.30;6.40;;;12.00;89.70;;;11.32;74.02;99708.91;5008216;28;20092;-79
2023/04/22 06:03:53;;;;;;;8.80;6.35;;;12.10;90.20;;;11.34;73.88;99704.13;5012590;28;20123;-77
2023/04/22 06:06:21;;;;;;;8.93;5.38;;;12.00;89.70;;;11.39;73.92;99694.63;5011624;28;20425;-79
2023/04/22 06:08:49;;;;;;;11.38;6.15;;;12.10;89.30;;;11.41;74.27;99697.84;5024821;28;20056;-79
2023/04/22 06:11:16;;;;;;;8.63;6.07;;;12.10;90.10;;;11.44;74.58;99700.88;5025623;28;20489;-79
2023/04/22 06:13:43;;;;;;;12.90;5.90;;;12.10;90.20;;;11.47;74.02;99696.94;5030628;28;20498;-78
2023/04/22 06:16:11;;;;;;;9.23;5.82;;;12.20;89.50;;;11.51;73.66;99706.06;5029128;28;20046;-77
2023/04/22 06:18:38;;;;;;;10.88;5.93;;;12.20;89.50;;;11.54;73.87;99703.75;5011741;28;20073;-79
2023/04/22 06:21:08;;;;;;;10.60;5.90;;;12.30;89.40;;;11.57;73.91;99694.47;5015431;28;20073;-78
2023/04/22 06:23:37;;;;;;;10.38;6.15;;;12.30;89.90;;;11.60;74.08;99697.44;5012042;28;20049;-78
2023/04/22 06:26:06;;;;;;;8.77;5.47;;;12.30;89.90;;;11.65;74.49;99694.06;5016103;28;20132;-78
2023/04/22 06:28:35;;;;;;;10.67;5.80;;;12.30;90.30;;;11.69;74.39;99692.56;5010016;28;20049;-79
2023/04/22 06:31:07;;;;;;;7.32;5.30;;;12.40;90.20;;;11.73;74.50;99696.38;5008403;28;20303;-79
2023/04/22 06:33:37;;;;;;;8.30;5.22;;;12.40;90.20;;;11.78;74.92;99690.31;5010552;28;20050;-80
2023/04/22 06:36:05;;;;;;;7.93;5.30;;;12.50;90.70;;;11.83;74.83;99693.13;5022358;28;20076;-79
2023/04/22 06:38:34;;;;;;;10.50;5.70;;;12.50;90.80;;;11.89;75.40;99694.03;5009248;28;20136;-77
2023/04/22 06:41:43;;;;;;;6.63;4.72;;;12.60;91.50;;;11.94;75.39;99691.44;4947257;28;20667;-77
2023/04/22 06:44:31;;;;;;;9.27;5.43;;;12.70;91.60;;;12.04;76.91;99686.28;4919141;28;20062;-79
2023/04/22 06:47:23;;;;;;;8.18;5.53;;;12.70;92.70;;;12.25;78.47;99693.63;4996344;28;20187;-79
2023/04/22 06:49:59;;;;;;;16.17;5.00;;;12.90;93.60;;;12.44;80.09;99693.38;5013002;28;20050;-80
2023/04/22 06:52:31;;;;;;;7.07;3.78;;;13.10;94.60;;;12.65;79.86;99684.66;5009504;28;20045;-78
2023/04/22 06:54:59;;;;;;;7.57;4.35;;;13.30;93.50;;;12.89;78.93;99687.94;5033265;28;20135;-79
2023/04/22 06:57:28;;;;;;;7.45;4.57;;;13.60;93.20;;;13.07;80.57;99678.81;5013120;28;20045;-77
2023/04/22 06:59:55;;;;;;;5.60;3.67;;;13.80;94.70;;;13.29;80.16;99684.25;5032217;28;20131;-78
2023/04/22 07:02:25;;;;;;;7.43;3.83;;;13.90;93.60;;;13.52;79.18;99680.50;5007992;28;20386;-77
2023/04/22 07:04:52;;;;;;;5.32;3.35;;;14.20;93.00;;;13.70;76.77;99676.69;5008036;28;20521;-78
2023/04/22 07:07:20;;;;;;;4.13;2.92;;;14.40;90.80;;;13.88;74.11;99676.34;5007936;28;20049;-80
2023/04/22 07:09:47;;;;;;;4.45;2.70;;;14.60;89.00;;;14.06;70.82;99677.88;5006876;28;20042;-79
2023/04/22 07:12:15;;;;;;;7.97;2.83;;;14.80;86.30;;;14.25;72.38;99668.41;5023297;28;20828;-83
2023/04/22 07:14:45;;;;;;;4.70;2.92;;;15.00;88.20;;;14.46;74.48;99668.56;5024618;28;20088;-85
2023/04/22 07:17:13;;;;;;;7.35;2.88;;;15.20;89.90;;;14.62;73.14;99668.44;5022928;28;20540;-83
2023/04/22 07:19:40;;;;;;;4.60;2.90;;;15.40;88.40;;;14.79;71.35;99675.56;5028782;28;20052;-84
2023/04/22 07:22:07;;;;;;;5.45;2.88;;;15.60;86.70;;;14.92;69.71;99673.22;5026115;28;20037;-85
2023/04/22 07:24:34;;;;;;;5.25;3.03;;;15.70;85.40;;;15.10;70.00;99671.16;5028917;28;20041;-85
2023/04/22 07:27:02;;;;;;;4.88;2.55;;;15.90;86.00;;;15.25;67.63;99665.88;5035443;28;20057;-83
2023/04/22 07:29:30;;;;;;;5.70;2.55;;;16.10;83.50;;;15.38;65.89;99667.28;5025777;28;20136;-82
2023/04/22 07:31:58;;;;;;;5.65;2.75;;;16.20;82.00;;;15.54;65.67;99668.94;5024701;28;20549;-79
2023/04/22 07:34:25;;;;;;;5.68;2.47;;;16.30;81.50;;;15.69;64.44;99662.84;5030870;28;20037;-79
2023/04/22 07:36:53;;;;;;;4.63;2.40;;;16.50;80.40;;;15.78;63.13;99655.06;5035134;28;20133;-79
2023/04/22 07:39:21;;;;;;;5.20;2.25;;;16.60;79.40;;;15.90;61.39;99661.81;5024580;28;20075;-79
2023/04/22 07:41:49;;;;;;;5.60;2.50;;;16.70;77.60;;;16.01;60.18;99649.22;5031145;28;20482;-79
2023/04/22 07:44:20;;;;;;;5.82;2.72;;;16.80;76.20;;;16.08;60.19;99654.31;5024045;28;20037;-76
2023/04/22 07:46:47;;;;;;;4.28;2.47;;;16.90;76.20;;;15.98;60.32;99651.63;5025905;28;20497;-80
2023/04/22 07:49:16;;;;;;;5.55;2.40;;;16.90;76.30;;;15.89;60.28;99652.13;5028108;28;20582;-79
2023/04/22 07:51:44;;;;;;;7.90;2.45;;;16.80;75.80;;;15.82;60.57;99648.91;5027015;28;20052;-78
2023/04/22 07:54:12;;;;;;;5.15;2.45;;;16.80;76.40;;;15.75;59.37;99645.66;5029313;28;20600;-79
2023/04/22 07:56:39;;;;;;;6.35;2.55;;;16.70;74.10;;;15.68;59.78;99647.78;5011731;28;20432;-79
2023/04/22 07:59:07;;;;;;;3.97;2.33;;;16.70;75.50;;;15.70;59.96;99648.31;5028913;28;20052;-77
2023/04/22 08:01:34;;;;;;;5.50;2.40;;;16.70;75.30;;;15.83;59.73;99644.31;5027222;28;20037;-79
2023/04/22 08:04:01;;;;;;;5.18;2.45;;;16.70;74.80;;;15.93;58.58;99649.72;5032724;28;20050;-78
2023/04/22 08:06:30;;;;;;;4.63;2.42;;;16.80;73.80;;;16.07;58.83;99633.88;5029908;28;20037;-78
2023/04/22 08:08:58;;;;;;;8.70;2.40;;;17.00;74.60;;;16.21;58.12;99640.34;5039680;28;20110;-78
2023/04/22 08:11:25;;;;;;;6.22;2.50;;;17.10;73.30;;;16.31;57.12;99629.56;5031849;28;20039;-78
2023/04/22 08:13:52;;;;;;;6.32;2.17;;;17.20;72.60;;;16.40;58.61;99633.34;5026523;28;20045;-78
2023/04/22 08:16:20;;;;;;;5.30;2.20;;;17.20;74.10;;;16.55;57.40;99629.03;5022598;28;20049;-79
2023/04/22 08:18:47;;;;;;;4.30;2.10;;;17.40;72.90;;;16.67;56.11;99632.22;5026464;28;20051;-77
2023/04/22 08:21:14;;;;;;;4.18;2.17;;;17.50;71.40;;;16.73;56.24;99628.47;5022854;28;20037;-78
2023/04/22 08:23:43;;;;;;;8.65;2.35;;;17.60;71.50;;;16.79;53.77;99629.25;5026677;28;20146;-78
2023/04/22 08:26:13;;;;;;;6.80;2.40;;;17.70;68.80;;;16.83;55.52;99625.75;5025996;28;20482;-78
2023/04/22 08:28:41;;;;;;;5.18;2.50;;;17.70;71.10;;;16.95;56.08;99633.56;5034466;28;20103;-77
2023/04/22 08:31:09;;;;;;;6.38;2.40;;;17.80;71.30;;;16.95;55.95;99628.97;5020336;28;20041;-79
2023/04/22 08:33:36;;;;;;;5.78;2.30;;;17.80;70.80;;;16.95;55.02;99628.97;5018471;28;20124;-77
2023/04/22 08:36:03;;;;;;;5.03;2.25;;;17.90;69.70;;;16.92;54.17;99623.31;5028479;28;20560;-78
2023/04/22 08:38:31;;;;;;;4.78;2.00;;;17.80;68.90;;;16.92;53.45;99624.13;5023118;28;20042;-77
2023/04/22 08:41:00;;;;;;;4.30;2.22;;;17.80;68.10;;;16.97;53.26;99621.41;5026102;28;20045;-77
2023/04/22 08:43:27;;;;;;;4.80;2.08;;;17.90;67.60;;;17.01;51.95;99626.25;5022203;28;20120;-77
2023/04/22 08:45:55;;;;;;;4.93;2.25;;;17.90;66.00;;;17.08;53.18;99618.69;5025140;28;20605;-77
2023/04/22 08:48:23;;;;;;;5.70;1.83;;;17.90;67.60;;;17.12;52.44;99612.47;5026375;28;20713;-77
2023/04/22 08:50:51;;;;;;;6.38;1.92;;;18.00;66.60;;;17.20;51.91;99613.78;5023869;28;20049;-76
2023/04/22 08:53:18;;;;;;;5.60;2.13;;;18.10;66.10;;;17.22;51.84;99612.41;5026457;28;20128;-77
2023/04/22 08:55:46;;;;;;;4.32;2.00;;;18.10;66.20;;;17.29;52.53;99597.88;5024390;28;20049;-76
2023/04/22 08:58:14;;;;;;;4.55;2.15;;;18.20;67.10;;;17.38;51.16;99597.00;5023003;28;20128;-76
2023/04/22 09:00:44;;;;;;;7.88;2.10;;;18.30;65.20;;;17.38;50.77;99601.59;5020163;28;20116;-76
2023/04/22 09:03:12;;;;;;;4.18;2.10;;;18.30;64.80;;;17.34;51.12;99598.63;5024924;28;20493;-77
2023/04/22 09:05:41;;;;;;;4.45;2.10;;;18.20;65.10;;;17.32;51.40;99605.38;5030716;28;20421;-77
2023/04/22 09:08:12;;;;;;;4.30;2.60;;;18.20;65.20;;;17.30;52.28;99596.78;5029706;28;20069;-76
2023/04/22 09:10:39;;;;;;;6.45;2.42;;;18.20;66.40;;;17.33;51.89;99585.44;5029233;28;20081;-76
2023/04/22 09:13:07;;;;;;;4.30;2.10;;;18.20;66.30;;;17.47;52.37;99587.25;5030766;28;20089;-76
2023/04/22 09:15:35;;;;;;;4.50;2.20;;;18.40;66.50;;;17.65;51.61;99584.97;5037289;28;20123;-76
2023/04/22 09:18:04;;;;;;;6.47;2.20;;;18.50;65.60;;;17.70;51.39;99588.44;5027851;28;20056;-77
2023/04/22 09:20:32;;;;;;;5.40;2.42;;;18.60;65.20;;;17.77;51.65;99590.88;5031190;28;20046;-77
2023/04/22 09:23:04;;;;;;;5.25;2.17;;;18.60;65.80;;;17.90;51.66;99579.44;5030994;28;20120;-77
2023/04/22 09:25:34;;;;;;;5.28;1.90;;;18.80;65.30;;;17.89;50.02;99572.44;5031345;28;20513;-79
2023/04/22 09:28:02;;;;;;;5.15;2.08;;;18.80;63.80;;;17.94;51.67;99587.78;5040301;28;20056;-78
2023/04/22 09:30:31;;;;;;;4.93;2.38;;;18.80;65.20;;;17.90;50.97;99582.13;5030849;28;20051;-77
2023/04/22 09:33:02;;;;;;;3.58;2.00;;;18.80;64.50;;;17.91;49.69;99581.06;5027199;28;20041;-77
2023/04/22 09:35:32;;;;;;;4.35;2.40;;;18.80;63.00;;;17.91;50.26;99578.38;5027574;28;20126;-78
2023/04/22 09:38:01;;;;;;;4.93;2.22;;;18.80;63.70;;;17.91;50.14;99585.63;5024533;28;20049;-81
2023/04/22 09:40:29;;;;;;;5.40;2.28;;;18.80;63.90;;;17.91;49.22;99582.94;5023860;28;20120;-81
2023/04/22 09:43:00;;;;;;;3.22;2.00;;;18.80;62.00;;;17.98;50.87;99580.75;5010064;28;20150;-81
2023/04/22 09:45:30;;;;;;;4.50;2.15;;;18.90;64.40;;;18.06;50.11;99571.25;5027922;28;20119;-80
2023/04/22 09:48:06;;;;;;;5.47;2.10;;;18.90;63.60;;;18.18;50.02;99567.06;5027357;28;20045;-80
2023/04/22 09:50:33;;;;;;;4.07;2.17;;;19.00;63.40;;;18.19;50.60;99570.56;5030579;28;20055;-80
2023/04/22 09:53:03;;;;;;;8.18;2.20;;;19.10;64.10;;;18.25;49.70;99569.44;5024568;28;20117;-80
2023/04/22 09:55:33;;;;;;;4.05;1.98;;;19.10;63.00;;;18.21;48.81;99569.22;5020458;28;20401;-79
2023/04/22 09:58:08;;;;;;;5.40;2.05;;;19.10;61.80;;;18.21;50.38;99565.72;5026568;28;20762;-81
2023/04/22 10:00:37;;;;;;;4.05;2.03;;;19.10;63.70;;;18.30;50.03;99566.72;5025706;28;20414;-81
2023/04/22 10:03:07;;;;;;;6.20;2.10;;;19.20;63.50;;;18.31;49.34;99570.22;5028875;28;20077;-79
2023/04/22 10:05:36;;;;;;;8.95;2.25;;;19.20;62.40;;;18.26;48.86;99566.47;5022130;28;20038;-80
2023/04/22 10:08:05;;;;;;;6.18;2.15;;;19.20;61.60;;;18.26;49.02;99566.47;5025968;28;20049;-79
2023/04/22 10:10:36;;;;;;;5.43;2.10;;;19.20;62.00;;;18.23;49.30;99575.13;5009406;28;20041;-77
2023/04/22 10:13:05;;;;;;;7.30;2.42;;;19.20;62.10;;;18.17;49.65;99561.97;5029510;28;20502;-76
2023/04/22 10:15:34;;;;;;;6.93;2.20;;;19.10;62.60;;;18.14;50.27;99557.94;5026926;28;20131;-76
2023/04/22 10:18:05;;;;;;;5.63;2.35;;;19.10;63.40;;;18.17;49.51;99556.56;5022938;28;20046;-77
2023/04/22 10:20:36;;;;;;;6.30;1.85;;;19.10;62.60;;;18.21;49.67;99554.91;5022848;28;20064;-79
2023/04/22 10:23:04;;;;;;;;;;;19.10;63.20;;;18.31;49.56;99545.91;5029682;28;20510;-78
2023/04/22 10:25:32;;;;;;;5.35;2.17;;;19.20;62.30;;;18.52;52.19;99548.09;5027617;28;19925;-78